Terminal Aerodrome Forecast
Issued by NWS Topeka, KS

Home | Current Version | Previous Version | Text Only | Print | Product List | Glossary On
Versions: 1 2 3 4 5 6 7 8 9 10 11 12 13 14 15 16 17 18 19 20 21 22 23
000
FTUS43 KTOP 202332
TAFTOP
TAF
KTOP 202332Z 2100/2124 01005KT P6SM BKN018
      TEMPO 2101/2104 SCT020 BKN035
     FM210800 32004KT 5SM BR OVC009
     FM211300 31006KT 6SM BR BKN015
     FM211800 30006KT P6SM BKN040=

USA.gov is the U.S. government's official web portal to all federal, state and local government web resources and services.